Burewala Weather



Burewala's Current Weather

Temprature 39.05o clear sky

clear sky

Rain: 0 %

Min Temprature39.05o
Max Temprature39.05o
Humidity25
Wind Speed13.35 m/h
Sun Rise05:09:24
Sun Set19:14:26
Current Time: 26-Jun-2019 15:42:08
Lat/Lon: 30.16, 72.68




Burewala's Geo Location



Burewala's Weather Forecast

Time Overall Temp Min Temp Max Temp Humidity Wind Speed Rain
26-Jun-2019 (Wed)
17:00:00 clear sky 35.120 35.120 39.050 25 13.35 m/h 0 %
20:00:00 broken clouds 36.900 36.900 39.847 20 4.17 m/h 0 %
23:00:00 scattered clouds 35.680 35.680 37.640 23 2.89 m/h 0 %
27-Jun-2019 (Thu)
02:00:00 clear sky 34.800 34.800 35.779 28 2.7 m/h 0 %
05:00:00 clear sky 35.665 35.665 35.665 31 5.18 m/h 0 %
08:00:00 clear sky 38.850 38.850 38.850 29 6.45 m/h 0 %
11:00:00 clear sky 44.774 44.774 44.774 16 6.31 m/h 0 %
14:00:00 few clouds 46.350 46.350 46.350 12 5.45 m/h 0 %
17:00:00 scattered clouds 37.880 37.880 37.880 24 5.92 m/h 0 %
20:00:00 light rain 38.294 38.294 38.294 21 5.28 m/h 25 %
23:00:00 overcast clouds 38.035 38.035 38.035 21 3.74 m/h 0 %
28-Jun-2019 (Fri)
02:00:00 clear sky 35.828 35.828 35.828 27 3.85 m/h 0 %
05:00:00 clear sky 34.828 34.828 34.828 34 5 m/h 0 %
08:00:00 clear sky 35.779 35.779 35.779 35 6.42 m/h 0 %
11:00:00 clear sky 40.725 40.725 40.725 25 5.34 m/h 0 %
14:00:00 clear sky 44.331 44.331 44.331 18 5.11 m/h 0 %
17:00:00 clear sky 44.750 44.750 44.750 15 5.27 m/h 0 %
20:00:00 clear sky 41.250 41.250 41.250 18 4.69 m/h 0 %
23:00:00 clear sky 39.272 39.272 39.272 22 7.08 m/h 0 %
29-Jun-2019 (Sat)
02:00:00 clear sky 37.372 37.372 37.372 30 7.18 m/h 0 %
05:00:00 clear sky 34.319 34.319 34.319 42 7.68 m/h 0 %
08:00:00 clear sky 34.967 34.967 34.967 40 8.02 m/h 0 %
11:00:00 clear sky 40.950 40.950 40.950 25 7.04 m/h 0 %
14:00:00 clear sky 45.850 45.850 45.850 13 6.64 m/h 0 %
17:00:00 clear sky 45.191 45.191 45.191 12 6.09 m/h 0 %
20:00:00 clear sky 40.950 40.950 40.950 17 4.36 m/h 0 %
23:00:00 clear sky 38.850 38.850 38.850 21 5.36 m/h 0 %
30-Jun-2019 (Sun)
02:00:00 clear sky 37.226 37.226 37.226 26 6.62 m/h 0 %
05:00:00 clear sky 34.162 34.162 34.162 48 8.32 m/h 0 %
08:00:00 clear sky 34.952 34.952 34.952 46 7.91 m/h 0 %
11:00:00 clear sky 41.218 41.218 41.218 27 7.45 m/h 0 %
14:00:00 clear sky 45.609 45.609 45.609 15 6.3 m/h 0 %
17:00:00 clear sky 45.150 45.150 45.150 15 6.03 m/h 0 %
20:00:00 clear sky 41.250 41.250 41.250 18 4.07 m/h 0 %
23:00:00 clear sky 39.750 39.750 39.750 18 6.67 m/h 0 %
01-Jul-2019 (Mon)
02:00:00 clear sky 37.250 37.250 37.250 29 7.97 m/h 0 %
05:00:00 clear sky 33.935 33.935 33.935 52 8.78 m/h 0 %
08:00:00 clear sky 34.350 34.350 34.350 50 8.36 m/h 0 %
11:00:00 clear sky 40.850 40.850 40.850 30 7.9 m/h 0 %
14:00:00 clear sky 45.650 45.650 45.650 17 6.46 m/h 0 %


Burewala's Tourist Spots

Historical Places in Burewala

Famous Cities (60)